Time;durP1;ratioP1;P1;durP2;ratioP2;P2;SDS_P1;SDS_P2;PMS_P1;PMS_P2;Temp;Humidity;BMP_temperature;BMP_pressure;BME280_temperature;BME280_humidity;BME280_pressure;Samples;Min_cycle;Max_cycle;Signal;HPM_P1;HPM_P2
2023/08/13 00:01:47;;;;;;;46.17;23.70;;;;;;;20.15;83.71;99418.22;4907344;29;20126;-87
2023/08/13 00:04:13;;;;;;;42.20;22.43;;;;;;;20.14;83.67;99413.06;4908688;29;20048;-89
2023/08/13 00:06:40;;;;;;;43.03;22.55;;;;;;;20.25;83.83;99424.31;4938233;29;20054;-87
2023/08/13 00:09:06;;;;;;;40.90;21.40;;;;;;;20.28;83.69;99418.00;4901335;29;20123;-86
2023/08/13 00:11:32;;;;;;;37.75;21.63;;;;;;;20.23;83.61;99408.03;4922724;29;20059;-88
2023/08/13 00:13:58;;;;;;;34.40;21.13;;;;;;;20.22;83.50;99400.06;4924162;29;20130;-90
2023/08/13 00:16:24;;;;;;;42.22;23.40;;;;;;;20.23;83.62;99407.22;4926836;29;20054;-87
2023/08/13 00:18:50;;;;;;;43.10;21.33;;;;;;;20.20;83.32;99408.78;4945848;29;20051;-96
2023/08/13 00:21:16;;;;;;;39.93;22.17;;;;;;;20.24;84.02;99419.94;4946174;29;20079;-88
2023/08/13 00:23:42;;;;;;;52.30;23.43;;;;;;;20.16;84.00;99407.91;4925239;29;20287;-87
2023/08/13 00:26:08;;;;;;;39.50;22.53;;;;;;;20.15;84.10;99407.13;4928501;29;20152;-87
2023/08/13 00:28:34;;;;;;;39.20;22.50;;;;;;;20.07;84.52;99410.19;4926453;29;20054;-87
2023/08/13 00:31:00;;;;;;;42.93;22.60;;;;;;;19.95;84.66;99386.22;4921770;29;20107;-87
2023/08/13 00:33:26;;;;;;;38.90;23.60;;;;;;;20.02;84.56;99396.63;4922010;29;20048;-95
2023/08/13 00:35:52;;;;;;;39.30;24.50;;;;;;;20.02;84.86;99402.19;4892697;29;20036;-88
2023/08/13 00:38:19;;;;;;;44.93;23.90;;;;;;;19.99;85.30;99414.03;4920745;29;20043;-87
2023/08/13 00:40:47;;;;;;;39.45;23.63;;;;;;;19.89;85.09;99407.13;4931945;29;20039;-94
2023/08/13 00:43:13;;;;;;;42.70;25.83;;;;;;;20.01;84.74;99425.56;4942233;29;20074;-89
2023/08/13 00:45:40;;;;;;;44.10;25.70;;;;;;;19.90;84.87;99394.84;4925089;29;20058;-87
2023/08/13 00:48:06;;;;;;;;;;;;;;;19.98;85.11;99415.22;4941772;29;20036;-85
2023/08/13 00:50:32;;;;;;;47.78;24.58;;;;;;;19.75;84.99;99381.97;4917468;29;19919;-87
2023/08/13 00:52:58;;;;;;;47.80;25.08;;;;;;;19.78;85.12;99387.56;4908566;29;20039;-96
2023/08/13 00:55:25;;;;;;;39.47;24.43;;;;;;;19.81;85.19;99392.38;4891553;29;20040;-86
2023/08/13 00:57:50;;;;;;;;;;;;;;;19.82;85.60;99405.06;4906905;29;20147;-90
2023/08/13 01:00:16;;;;;;;43.08;22.67;;;;;;;19.46;86.38;99349.00;4904898;29;19923;-86
2023/08/13 01:02:43;;;;;;;54.42;24.70;;;;;;;19.66;86.77;99379.44;4902524;29;20420;-87
2023/08/13 01:05:09;;;;;;;40.05;22.58;;;;;;;19.69;86.30;99385.03;4939021;29;20043;-90
2023/08/13 01:07:58;;;;;;;43.67;23.38;;;;;;;19.72;85.98;99394.59;4906196;29;20055;-86
2023/08/13 01:10:33;;;;;;;65.70;23.08;;;;;;;19.62;87.10;99390.44;4917239;29;20075;-85
2023/08/13 01:13:04;;;;;;;34.75;22.38;;;;;;;19.50;86.94;99371.22;4928497;29;20129;-86
2023/08/13 01:15:33;;;;;;;45.00;23.38;;;;;;;19.56;86.76;99380.03;4893217;29;20048;-86
2023/08/13 01:18:01;;;;;;;41.08;22.73;;;;;;;19.54;87.47;99374.09;4895232;29;20033;-88
2023/08/13 01:20:38;;;;;;;51.20;22.52;;;;;;;19.54;86.54;99366.56;4880763;29;20024;-85
2023/08/13 01:23:04;;;;;;;40.33;21.83;;;;;;;19.61;86.85;99388.84;4908036;29;20052;-87
2023/08/13 01:25:32;;;;;;;48.85;23.30;;;;;;;19.45;87.12;99371.56;4905604;29;20123;-88
2023/08/13 01:28:28;;;;;;;40.65;24.15;;;;;;;19.64;86.83;99406.75;4895657;29;20188;-87
2023/08/13 01:31:29;;;;;;;45.13;22.92;;;;;;;19.55;86.07;99384.78;4912263;29;20044;-86
2023/08/13 01:33:58;;;;;;;49.20;24.45;;;;;;;19.50;86.47;99379.53;4892433;29;20040;-86
2023/08/13 01:36:25;;;;;;;46.13;22.90;;;;;;;19.55;86.35;99386.78;4903972;29;20048;-88
2023/08/13 01:38:53;;;;;;;43.25;24.58;;;;;;;19.45;86.70;99369.59;4904276;29;20037;-87
2023/08/13 01:41:19;;;;;;;40.80;23.67;;;;;;;19.53;86.86;99373.25;4922370;29;20134;-89
2023/08/13 01:43:45;;;;;;;47.87;23.47;;;;;;;19.51;86.54;99372.06;4905740;29;20071;-89
2023/08/13 01:46:11;;;;;;;48.37;25.10;;;;;;;19.49;87.20;99370.44;4909651;29;20063;-96
2023/08/13 01:48:37;;;;;;;43.47;23.58;;;;;;;19.54;87.15;99377.66;4907078;29;20064;-87
2023/08/13 01:51:03;;;;;;;46.70;23.47;;;;;;;19.52;87.23;99365.31;4912898;29;20533;-87
2023/08/13 01:53:29;;;;;;;49.20;24.07;;;;;;;19.63;86.89;99377.38;4924102;29;20177;-87
2023/08/13 01:55:55;;;;;;;48.80;23.70;;;;;;;19.56;87.21;99360.63;4897157;29;20099;-93
2023/08/13 01:58:21;;;;;;;39.90;24.20;;;;;;;19.70;87.42;99391.38;4906829;29;20081;-88
2023/08/13 02:00:47;;;;;;;43.37;23.53;;;;;;;19.62;87.04;99364.69;4889443;29;20118;-95
2023/08/13 02:03:13;;;;;;;46.23;24.00;;;;;;;19.61;86.95;99368.66;4940294;29;20059;-90
2023/08/13 02:05:39;;;;;;;49.17;24.03;;;;;;;19.62;87.07;99362.72;4936310;29;20104;-89
2023/08/13 02:08:05;;;;;;;49.43;24.37;;;;;;;19.81;87.07;99383.25;4935977;29;20127;-89
2023/08/13 02:10:31;;;;;;;44.10;23.65;;;;;;;19.73;87.22;99371.22;4910602;29;20046;-87
2023/08/13 02:12:59;;;;;;;42.17;23.87;;;;;;;19.60;86.84;99348.44;4909773;29;20126;-88
2023/08/13 02:15:25;;;;;;;51.10;24.90;;;;;;;19.74;87.24;99366.50;4922331;29;20064;-89
2023/08/13 02:17:51;;;;;;;51.60;26.37;;;;;;;19.84;86.97;99369.44;4918423;29;20047;-87
2023/08/13 02:20:17;;;;;;;51.00;26.03;;;;;;;19.87;86.79;99377.00;4904322;29;20473;-88
2023/08/13 02:22:43;;;;;;;53.00;25.67;;;;;;;19.83;87.35;99361.47;4917744;29;20044;-88
2023/08/13 02:25:10;;;;;;;44.42;25.35;;;;;;;19.75;86.85;99349.47;4907981;29;20047;-88
2023/08/13 02:27:36;;;;;;;44.35;25.35;;;;;;;19.82;86.37;99362.66;4923200;29;20529;-87
2023/08/13 02:30:03;;;;;;;50.67;24.43;;;;;;;19.85;86.22;99370.22;4924893;29;20160;-87
2023/08/13 02:32:30;;;;;;;57.35;25.40;;;;;;;19.90;86.41;99362.38;4907545;29;20483;-93
2023/08/13 02:34:56;;;;;;;41.27;25.47;;;;;;;19.77;86.49;99346.31;4928371;29;20099;-88
2023/08/13 02:37:22;;;;;;;43.50;25.13;;;;;;;19.83;86.69;99365.03;4933280;29;20044;-87
2023/08/13 02:39:48;;;;;;;49.07;25.73;;;;;;;19.81;86.43;99356.31;4906914;29;20043;-87
2023/08/13 02:42:16;;;;;;;47.55;24.50;;;;;;;19.94;86.71;99357.69;4908288;29;20036;-87
2023/08/13 02:44:42;;;;;;;50.57;24.10;;;;;;;19.81;86.95;99339.66;4923680;29;20063;-87
2023/08/13 02:47:08;;;;;;;45.65;24.45;;;;;;;20.06;86.73;99372.50;4909023;29;20091;-88
2023/08/13 02:49:34;;;;;;;46.83;25.70;;;;;;;19.99;86.50;99364.06;4942487;29;20028;-87
2023/08/13 02:52:02;;;;;;;45.70;25.23;;;;;;;19.97;86.68;99360.88;4918225;29;20519;-87
2023/08/13 02:54:28;;;;;;;40.75;25.10;;;;;;;19.99;86.62;99353.78;4928029;29;20695;-87
2023/08/13 02:56:53;;;;;;;46.00;25.00;;;;;;;19.96;86.47;99351.75;4912840;29;20044;-87
2023/08/13 02:59:19;;;;;;;40.90;24.37;;;;;;;19.99;86.98;99359.31;4905067;29;20569;-87
2023/08/13 03:01:45;;;;;;;41.20;23.77;;;;;;;19.92;86.72;99346.16;4939790;29;20416;-87
2023/08/13 03:04:11;;;;;;;51.40;23.75;;;;;;;20.19;86.81;99373.88;4942331;29;20048;-87
2023/08/13 03:06:37;;;;;;;50.77;24.50;;;;;;;20.19;86.62;99384.97;4925995;29;20131;-95
2023/08/13 03:09:03;;;;;;;43.00;25.07;;;;;;;20.19;86.92;99373.88;4921455;29;20130;-95
2023/08/13 03:11:31;;;;;;;56.25;25.30;;;;;;;20.19;86.65;99351.66;4925420;29;20032;-88
2023/08/13 03:13:57;;;;;;;41.92;22.52;;;;;;;20.43;86.11;99389.28;4909291;29;20040;-87
2023/08/13 03:16:23;;;;;;;54.80;24.15;;;;;;;20.47;84.98;99386.53;4926375;29;20044;-87
2023/08/13 03:18:50;;;;;;;49.45;24.58;;;;;;;20.52;84.89;99391.78;4914007;29;20067;-86
2023/08/13 03:21:19;;;;;;;53.95;26.63;;;;;;;20.50;85.05;99386.56;4926632;29;20051;-84
2023/08/13 03:23:46;;;;;;;45.10;25.50;;;;;;;20.42;84.64;99366.22;4924487;29;20040;-87
2023/08/13 03:26:12;;;;;;;;;;;;;;;20.57;84.90;99383.13;4934740;29;20073;-88
2023/08/13 03:28:40;;;;;;;55.88;26.95;;;;;;;20.50;85.15;99374.66;4925959;29;19923;-85
2023/08/13 03:31:13;;;;;;;47.63;23.20;;;;;;;20.52;84.41;99373.13;4909346;29;20048;-86
2023/08/13 03:33:46;;;;;;;54.80;24.40;;;;;;;20.65;84.41;99385.59;4902068;29;20417;-86
2023/08/13 03:36:13;;;;;;;41.88;24.23;;;;;;;20.75;83.97;99388.88;4907952;29;20043;-92
2023/08/13 03:38:39;;;;;;;38.63;22.63;;;;;;;20.82;83.79;99388.94;4891800;29;20104;-86
2023/08/13 03:41:05;;;;;;;47.27;22.47;;;;;;;20.74;84.05;99373.38;4922794;29;20075;-87
2023/08/13 03:43:31;;;;;;;46.30;22.23;;;;;;;20.76;83.96;99374.63;4922625;29;20044;-86
2023/08/13 03:45:57;;;;;;;41.80;23.80;;;;;;;20.84;84.07;99390.16;4923510;29;20094;-86
2023/08/13 03:48:23;;;;;;;48.47;22.55;;;;;;;20.70;83.85;99372.56;4923223;29;20040;-86
2023/08/13 03:50:49;;;;;;;35.77;21.33;;;;;;;20.84;83.24;99379.06;4899302;29;20110;-86
2023/08/13 03:53:15;;;;;;;44.87;21.40;;;;;;;20.99;83.67;99384.75;4926770;29;20126;-86
2023/08/13 03:55:42;;;;;;;47.72;20.75;;;;;;;21.05;83.29;99374.91;4927478;29;20295;-89
2023/08/13 03:58:08;;;;;;;44.97;21.10;;;;;;;21.26;82.28;99393.78;4943746;29;20071;-88
2023/08/13 04:00:34;;;;;;;42.05;20.35;;;;;;;21.33;82.47;99391.84;4867768;29;20119;-86
2023/08/13 04:03:04;;;;;;;34.88;18.73;;;;;;;21.34;81.66;99384.31;4913236;29;20043;-89
2023/08/13 04:05:31;;;;;;;31.60;18.90;;;;;;;21.42;81.05;99377.63;4940408;29;20043;-87
2023/08/13 04:07:58;;;;;;;38.25;18.80;;;;;;;21.58;81.18;99382.94;4921712;29;20042;-86
2023/08/13 04:10:24;;;;;;;36.25;18.40;;;;;;;21.51;80.58;99367.00;4898702;29;20080;-87
2023/08/13 04:12:51;;;;;;;35.92;18.95;;;;;;;21.55;80.20;99362.25;4929249;29;20035;-86
2023/08/13 04:15:17;;;;;;;;;;;;;;;21.76;79.51;99386.66;4928450;29;20048;-86
2023/08/13 04:17:44;;;;;;;37.47;17.83;;;;;;;21.75;79.40;99370.34;4927730;29;19919;-87
2023/08/13 04:20:11;;;;;;;38.92;17.70;;;;;;;21.96;78.47;99381.63;4898904;29;20064;-86
2023/08/13 04:22:38;;;;;;;36.47;16.80;;;;;;;21.98;77.53;99367.31;4931351;29;20087;-87
2023/08/13 04:25:07;;;;;;;30.30;16.27;;;;;;;22.21;77.84;99381.78;4913932;29;20044;-87
2023/08/13 04:27:33;;;;;;;33.35;16.50;;;;;;;22.19;77.76;99361.13;4910250;29;20041;-87
2023/08/13 04:30:01;;;;;;;34.30;15.93;;;;;;;22.27;75.59;99359.94;4936911;29;20504;-89
2023/08/13 04:32:32;;;;;;;28.20;15.57;;;;;;;22.41;75.63;99379.50;4899991;29;20071;-88
2023/08/13 04:34:58;;;;;;;36.03;15.45;;;;;;;22.35;76.22;99358.81;4951636;29;20048;-88
2023/08/13 04:37:25;;;;;;;28.40;14.57;;;;;;;22.32;75.58;99355.97;4917520;29;20078;-88
2023/08/13 04:40:00;;;;;;;25.10;13.15;;;;;;;22.43;74.92;99367.97;4920525;29;20126;-88
2023/08/13 04:42:48;;;;;;;26.30;15.60;;;;;;;22.37;75.00;99350.03;4917532;29;20063;-88
2023/08/13 04:45:15;;;;;;;34.67;14.88;;;;;;;22.37;75.65;99352.84;4919885;29;20063;-89
2023/08/13 04:47:43;;;;;;;30.73;15.20;;;;;;;22.48;75.94;99368.41;4901772;29;20039;-90
2023/08/13 04:50:14;;;;;;;29.73;15.40;;;;;;;22.38;75.51;99340.50;4915047;29;20051;-89
2023/08/13 04:52:43;;;;;;;32.45;14.65;;;;;;;22.38;75.22;99334.91;4930212;29;20501;-87
2023/08/13 04:55:12;;;;;;;34.22;15.13;;;;;;;22.45;74.97;99368.38;4902169;29;20042;-87
2023/08/13 04:57:38;;;;;;;;;;;;;;;22.49;75.83;99367.22;4906523;29;20046;-86
2023/08/13 05:00:05;;;;;;;24.70;15.02;;;;;;;22.52;75.86;99369.22;4912753;29;19990;-88
2023/08/13 05:02:38;;;;;;;28.20;14.88;;;;;;;22.58;75.77;99371.59;4907527;29;20495;-91
2023/08/13 05:05:05;;;;;;;30.52;14.65;;;;;;;22.39;75.79;99342.09;4915944;29;20037;-89
2023/08/13 05:07:31;;;;;;;26.27;13.95;;;;;;;22.50;74.51;99371.59;4899103;29;20060;-89
2023/08/13 05:09:59;;;;;;;26.38;13.20;;;;;;;22.40;75.20;99352.84;4898735;29;20028;-89
2023/08/13 05:12:25;;;;;;;26.77;14.25;;;;;;;22.35;74.57;99361.59;4915888;29;20032;-89
2023/08/13 05:14:51;;;;;;;21.48;13.15;;;;;;;22.35;74.73;99349.63;4943231;29;20091;-89
2023/08/13 05:17:21;;;;;;;24.17;12.45;;;;;;;22.35;74.28;99341.28;4901081;29;20052;-90
2023/08/13 05:19:49;;;;;;;21.73;12.80;;;;;;;22.42;74.42;99353.25;4917047;29;20047;-92
2023/08/13 05:22:16;;;;;;;19.50;12.27;;;;;;;22.46;73.85;99350.50;4892749;29;20047;-88
2023/08/13 05:24:43;;;;;;;20.60;11.77;;;;;;;22.25;73.45;99329.72;4886411;29;20064;-89
2023/08/13 05:27:11;;;;;;;29.40;11.95;;;;;;;22.13;73.88;99349.50;4879842;29;20056;-89
2023/08/13 05:29:38;;;;;;;36.15;12.55;;;;;;;22.00;73.79;99334.34;4896626;29;20161;-89
2023/08/13 05:32:04;;;;;;;20.58;11.77;;;;;;;21.91;73.54;99339.44;4924456;29;20044;-90
2023/08/13 05:34:31;;;;;;;18.52;10.68;;;;;;;22.08;73.69;99369.34;4934068;29;20068;-90
2023/08/13 05:36:57;;;;;;;24.05;10.90;;;;;;;21.88;72.79;99349.34;4924041;29;20498;-89
2023/08/13 05:39:23;;;;;;;16.70;10.43;;;;;;;22.01;72.71;99353.41;4921382;29;20048;-92
2023/08/13 05:41:49;;;;;;;21.02;10.57;;;;;;;22.05;72.48;99350.66;4903815;29;20446;-87
2023/08/13 05:44:16;;;;;;;;;;;;;;;22.06;72.34;99357.84;4882376;29;20032;-88
2023/08/13 05:46:42;;;;;;;23.40;10.63;;;;;;;21.95;72.80;99345.81;4876374;29;19931;-89
2023/08/13 05:49:09;;;;;;;18.98;10.07;;;;;;;21.89;73.39;99327.91;4889443;29;20040;-89
2023/08/13 05:51:36;;;;;;;15.60;9.85;;;;;;;21.96;73.24;99344.66;4921732;29;20044;-89
2023/08/13 05:54:02;;;;;;;18.55;10.10;;;;;;;22.06;73.00;99346.69;4922395;29;20079;-90
2023/08/13 05:56:29;;;;;;;22.10;9.15;;;;;;;22.18;72.66;99340.81;4893046;29;20040;-88
2023/08/13 05:58:55;;;;;;;18.45;10.05;;;;;;;22.30;71.54;99345.25;4895662;29;20048;-90
2023/08/13 06:01:21;;;;;;;14.32;10.52;;;;;;;22.26;70.58;99342.44;4891127;29;20055;-91
2023/08/13 06:03:47;;;;;;;20.98;11.05;;;;;;;22.09;70.96;99337.56;4890669;29;20036;-89
2023/08/13 06:06:13;;;;;;;29.20;11.38;;;;;;;22.29;71.99;99357.56;4901345;29;20047;-89
2023/08/13 06:08:39;;;;;;;33.88;10.70;;;;;;;22.21;71.64;99353.16;4883909;29;20104;-90
2023/08/13 06:11:05;;;;;;;19.45;10.85;;;;;;;22.16;71.34;99347.97;4858224;29;20048;-88
2023/08/13 06:13:38;;;;;;;16.75;9.40;;;;;;;22.02;68.86;99357.03;4882709;29;20505;-89
2023/08/13 06:16:06;;;;;;;17.98;8.65;;;;;;;22.11;68.96;99365.78;4888641;29;20060;-89
2023/08/13 06:18:34;;;;;;;18.85;9.40;;;;;;;21.97;68.57;99344.25;4872703;29;20091;-88
2023/08/13 06:21:00;;;;;;;15.90;9.63;;;;;;;21.94;68.03;99356.16;4897621;29;20040;-88
2023/08/13 06:23:26;;;;;;;18.33;8.98;;;;;;;21.95;68.87;99354.16;4907696;29;20053;-89
2023/08/13 06:25:52;;;;;;;21.25;8.48;;;;;;;21.93;68.83;99362.91;4888868;29;20183;-89
2023/08/13 06:28:19;;;;;;;19.52;8.63;;;;;;;21.88;67.38;99356.91;4890185;29;20525;-89
2023/08/13 06:30:45;;;;;;;21.38;8.68;;;;;;;22.02;68.20;99346.69;4890580;29;20044;-88
2023/08/13 06:33:11;;;;;;;19.98;10.45;;;;;;;22.09;67.37;99368.19;4881080;29;20063;-87
2023/08/13 06:35:37;;;;;;;18.58;7.93;;;;;;;22.11;66.37;99373.34;4912614;29;20139;-88
2023/08/13 06:38:03;;;;;;;15.25;7.40;;;;;;;21.87;66.93;99322.72;4886638;29;20057;-88
2023/08/13 06:40:32;;;;;;;16.33;7.60;;;;;;;22.04;66.11;99358.19;4886136;29;20055;-88
2023/08/13 06:42:58;;;;;;;13.90;7.03;;;;;;;22.12;66.93;99374.94;4869137;29;20558;-87
2023/08/13 06:45:26;;;;;;;14.53;7.60;;;;;;;22.03;66.99;99378.09;4896869;29;20087;-88
2023/08/13 06:47:53;;;;;;;17.75;7.60;;;;;;;22.00;66.86;99373.31;4913354;29;20091;-89
2023/08/13 06:50:20;;;;;;;12.15;6.97;;;;;;;22.08;67.29;99394.41;4897781;29;20131;-87
2023/08/13 06:52:47;;;;;;;22.40;7.78;;;;;;;22.02;67.05;99391.22;4944687;29;20052;-91
2023/08/13 06:55:12;;;;;;;11.60;6.72;;;;;;;21.74;67.77;99360.41;4925704;29;20532;-87
2023/08/13 06:57:38;;;;;;;11.20;6.07;;;;;;;21.87;66.76;99372.03;4900491;29;20040;-90
2023/08/13 07:00:06;;;;;;;11.47;6.20;;;;;;;21.83;65.83;99380.34;4926941;29;20296;-88
2023/08/13 07:02:32;;;;;;;10.90;6.13;;;;;;;21.84;65.90;99386.72;4895345;29;20324;-87
2023/08/13 07:05:03;;;;;;;13.50;6.75;;;;;;;21.84;66.44;99370.00;4882775;29;20076;-88
2023/08/13 07:07:30;;;;;;;19.70;6.32;;;;;;;22.00;65.70;99406.72;4928802;29;20044;-91
2023/08/13 07:09:57;;;;;;;;;;;;;;;22.10;66.48;99394.84;4924546;29;20699;-88
2023/08/13 07:12:24;;;;;;;9.20;5.38;;;;;;;21.96;63.99;99369.72;4906138;29;19969;-87
2023/08/13 07:14:50;;;;;;;12.80;5.72;;;;;;;22.02;63.61;99379.28;4884779;29;20096;-90
2023/08/13 07:17:17;;;;;;;12.85;5.70;;;;;;;21.95;63.85;99373.66;4901162;29;20059;-89
2023/08/13 07:19:43;;;;;;;19.40;6.57;;;;;;;22.00;64.15;99388.00;4903826;29;20044;-89
2023/08/13 07:22:08;;;;;;;25.08;5.78;;;;;;;22.04;64.32;99394.41;4891930;29;20348;-89
2023/08/13 07:24:36;;;;;;;11.25;5.90;;;;;;;21.93;64.86;99389.97;4905704;29;20587;-88
2023/08/13 07:27:02;;;;;;;11.77;5.47;;;;;;;22.01;64.22;99399.94;4925635;29;20071;-86
2023/08/13 07:29:28;;;;;;;;;;;;;;;21.92;64.41;99405.03;4896064;29;20300;-87
2023/08/13 07:31:54;;;;;;;9.20;5.35;;;;;;;21.58;65.10;99391.28;4921047;29;19923;-88
2023/08/13 07:34:20;;;;;;;10.85;5.10;;;;;;;21.63;65.86;99393.72;4918071;29;20039;-86
2023/08/13 07:36:46;;;;;;;16.33;5.28;;;;;;;21.56;65.68;99377.78;4894580;29;20064;-88
2023/08/13 07:39:12;;;;;;;10.25;5.43;;;;;;;21.51;65.52;99371.75;4878033;29;20060;-89
2023/08/13 07:41:38;;;;;;;8.60;5.38;;;;;;;21.57;66.69;99382.16;4880414;29;20077;-87
2023/08/13 07:44:05;;;;;;;11.70;6.67;;;;;;;21.73;66.42;99411.69;4881301;29;20048;-86
2023/08/13 07:49:27;;;;;;;14.43;6.60;;;;;;;21.41;65.20;99366.91;5032852;23;20114;-90
2023/08/13 07:51:53;;;;;;;9.23;6.05;;;;;;;21.70;66.58;99407.69;4971100;29;20039;-87
2023/08/13 07:54:20;;;;;;;10.47;5.50;;;;;;;21.63;65.93;99399.28;4946265;29;20038;-87
2023/08/13 07:56:46;;;;;;;17.40;6.78;;;;;;;21.67;66.38;99408.47;4964009;29;20354;-89
2023/08/13 07:59:12;;;;;;;20.15;7.10;;;;;;;21.61;67.22;99406.41;4962941;29;20043;-86
2023/08/13 08:01:38;;;;;;;24.70;6.57;;;;;;;21.38;67.67;99403.84;4931093;29;20132;-88
2023/08/13 08:04:04;;;;;;;18.45;6.30;;;;;;;21.26;68.23;99400.13;4960045;28;20043;-89
2023/08/13 08:06:30;;;;;;;20.20;7.32;;;;;;;21.08;68.87;99407.47;4941824;29;20042;-88
2023/08/13 08:08:56;;;;;;;12.17;6.67;;;;;;;21.08;69.28;99418.59;4924655;29;20035;-86
2023/08/13 08:11:22;;;;;;;11.27;6.73;;;;;;;21.03;69.30;99421.75;4942206;29;20291;-86
2023/08/13 08:13:48;;;;;;;11.77;6.90;;;;;;;21.06;69.42;99421.00;4958199;28;20035;-86
2023/08/13 08:16:15;;;;;;;12.35;7.00;;;;;;;21.02;69.35;99417.34;4945575;29;20035;-85
2023/08/13 08:18:43;;;;;;;16.10;6.28;;;;;;;20.95;68.63;99422.81;4935144;29;20098;-87
2023/08/13 08:21:09;;;;;;;9.63;6.68;;;;;;;21.05;69.32;99422.16;4921845;29;20103;-87
2023/08/13 08:23:35;;;;;;;14.45;6.68;;;;;;;21.01;68.57;99412.97;4942615;29;20027;-86
2023/08/13 08:26:03;;;;;;;16.33;6.60;;;;;;;21.11;68.74;99440.88;4941441;29;20078;-86
2023/08/13 08:28:28;;;;;;;13.95;7.13;;;;;;;21.27;68.67;99431.50;4964354;29;20521;-89
2023/08/13 08:30:54;;;;;;;15.37;6.73;;;;;;;21.40;68.55;99416.19;4963153;29;20111;-88
2023/08/13 08:33:23;;;;;;;11.50;6.15;;;;;;;21.67;68.42;99418.78;4920672;29;20671;-87
2023/08/13 08:35:49;;;;;;;16.23;6.18;;;;;;;21.83;66.74;99418.53;4919804;29;20040;-88
2023/08/13 08:38:22;;;;;;;27.67;6.45;;;;;;;21.98;66.20;99439.69;4932096;29;20044;-87
2023/08/13 08:40:53;;;;;;;17.17;6.28;;;;;;;22.08;66.17;99430.59;4921755;29;20454;-87
2023/08/13 08:43:22;;;;;;;23.83;5.95;;;;;;;22.04;66.69;99435.34;4928209;29;20071;-85
2023/08/13 08:45:54;;;;;;;18.17;5.53;;;;;;;21.85;65.39;99432.84;4928111;29;20043;-84
2023/08/13 08:48:41;;;;;;;10.55;4.93;;;;;;;22.03;65.49;99442.91;4897863;29;20064;-87
2023/08/13 08:51:07;;;;;;;9.02;5.35;;;;;;;22.01;66.53;99450.06;4902232;29;20170;-87
2023/08/13 08:53:34;;;;;;;10.57;5.20;;;;;;;22.12;66.79;99453.72;4903369;29;20214;-86
2023/08/13 08:56:00;;;;;;;13.10;4.78;;;;;;;22.00;64.96;99434.53;4904387;29;20155;-85
2023/08/13 08:58:27;;;;;;;10.50;4.45;;;;;;;22.08;65.77;99457.66;4900999;29;20578;-86
2023/08/13 09:00:59;;;;;;;5.93;4.50;;;;;;;22.04;66.38;99452.06;4905000;29;20045;-86
2023/08/13 09:03:27;;;;;;;12.00;4.57;;;;;;;22.23;66.15;99448.25;4902434;29;20135;-88
2023/08/13 09:05:55;;;;;;;11.85;4.07;;;;;;;22.20;63.99;99447.03;4905335;29;20079;-87
2023/08/13 09:08:25;;;;;;;9.82;4.28;;;;;;;22.17;64.20;99441.44;4903931;29;20048;-85
2023/08/13 09:10:56;;;;;;;7.03;4.13;;;;;;;22.22;64.38;99455.81;4888361;29;20052;-86
2023/08/13 09:13:22;;;;;;;9.40;4.30;;;;;;;22.01;63.58;99475.09;4905442;29;20060;-88
2023/08/13 09:15:49;;;;;;;14.45;4.68;;;;;;;21.74;65.17;99471.72;4887484;29;20621;-86
2023/08/13 09:18:15;;;;;;;8.02;4.38;;;;;;;21.49;65.75;99450.03;4892335;29;20044;-88
2023/08/13 09:20:48;;;;;;;14.55;4.05;;;;;;;21.65;66.16;99474.81;4923487;29;20548;-88
2023/08/13 09:23:25;;;;;;;6.75;4.43;;;;;;;21.51;65.88;99460.78;4923361;29;20051;-88
2023/08/13 09:25:53;;;;;;;11.07;4.90;;;;;;;21.62;66.41;99464.44;4917316;29;20123;-89
2023/08/13 09:28:19;;;;;;;7.35;4.68;;;;;;;21.72;66.75;99476.84;4905864;29;20383;-86
2023/08/13 09:30:51;;;;;;;8.80;4.60;;;;;;;21.62;66.23;99460.88;4906240;29;20043;-87
2023/08/13 09:33:20;;;;;;;15.25;5.75;;;;;;;21.76;65.15;99486.84;4920915;29;20127;-84
2023/08/13 09:35:47;;;;;;;10.52;5.35;;;;;;;21.83;65.97;99472.19;4895369;29;20036;-85
2023/08/13 09:38:14;;;;;;;8.43;5.47;;;;;;;21.94;65.31;99488.97;4931330;29;20054;-84
2023/08/13 09:40:45;;;;;;;9.88;6.63;;;;;;;21.75;65.03;99467.72;4957143;29;20101;-88
2023/08/13 09:43:17;;;;;;;10.07;6.53;;;;;;;22.05;64.91;99481.50;4941997;29;20054;-87
2023/08/13 09:45:46;;;;;;;8.98;5.95;;;;;;;21.95;64.71;99459.94;4927167;29;20042;-87
2023/08/13 09:48:16;;;;;;;17.23;6.70;;;;;;;22.03;65.10;99458.81;4942041;29;20058;-85
2023/08/13 09:50:48;;;;;;;9.27;6.50;;;;;;;22.19;65.07;99486.41;4911205;29;20103;-87
2023/08/13 09:53:20;;;;;;;18.90;6.45;;;;;;;22.03;64.60;99486.66;4963241;29;20122;-85
2023/08/13 09:56:10;;;;;;;22.30;5.95;;;;;;;21.47;65.52;99454.38;4955888;29;20039;-85
2023/08/13 09:58:37;;;;;;;12.30;4.78;;;;;;;21.51;65.28;99485.81;4938301;29;20041;-85
2023/08/13 10:01:04;;;;;;;7.93;5.38;;;;;;;21.51;66.52;99480.25;4956201;29;20122;-86
2023/08/13 10:03:31;;;;;;;9.18;5.03;;;;;;;21.41;66.17;99487.28;4959169;29;20412;-84
2023/08/13 10:05:57;;;;;;;;;;;;;;;21.51;67.03;99492.16;4947127;29;20126;-85
2023/08/13 10:08:25;;;;;;;10.10;5.53;;;;;;;21.50;67.17;99473.09;4930254;29;19930;-85
2023/08/13 10:10:52;;;;;;;13.68;4.95;;;;;;;21.69;66.79;99489.56;4962490;29;20023;-86
2023/08/13 10:13:23;;;;;;;12.40;5.32;;;;;;;21.22;67.15;99426.28;4928045;29;20043;-85
2023/08/13 10:15:52;;;;;;;13.20;5.22;;;;;;;21.28;67.47;99458.91;4961542;28;20042;-87
2023/08/13 10:18:22;;;;;;;11.07;5.30;;;;;;;21.33;67.22;99477.25;4961607;29;20043;-85
2023/08/13 10:20:49;;;;;;;14.80;5.03;;;;;;;21.23;67.54;99464.84;4961792;29;20133;-85
2023/08/13 10:23:17;;;;;;;19.00;5.53;;;;;;;21.39;68.51;99489.69;4945143;29;20071;-86
2023/08/13 10:25:44;;;;;;;15.27;5.70;;;;;;;21.01;68.40;99430.44;4952596;29;20078;-86
2023/08/13 10:28:31;;;;;;;8.85;5.40;;;;;;;21.29;68.56;99485.56;4952154;29;20191;-87
2023/08/13 10:31:19;;;;;;;14.43;4.53;;;;;;;21.30;68.21;99492.72;4933429;29;20050;-86
2023/08/13 10:33:47;;;;;;;8.57;4.82;;;;;;;21.21;68.92;99483.88;4948533;28;20135;-86
2023/08/13 10:36:14;;;;;;;6.65;4.07;;;;;;;21.11;68.52;99473.44;4932376;29;20122;-84
2023/08/13 10:38:40;;;;;;;7.10;4.18;;;;;;;21.20;68.91;99482.28;4925338;29;20035;-86
2023/08/13 10:41:08;;;;;;;10.10;4.38;;;;;;;21.06;69.20;99471.00;4918939;29;21456;-86
2023/08/13 10:43:34;;;;;;;9.85;4.47;;;;;;;21.08;69.06;99472.22;4899230;29;20044;-85
2023/08/13 10:46:04;;;;;;;15.48;5.00;;;;;;;21.23;68.72;99503.78;4922117;28;20124;-85
2023/08/13 10:48:32;;;;;;;14.73;5.53;;;;;;;21.03;69.58;99496.78;4935699;28;20051;-86
2023/08/13 10:50:58;;;;;;;14.20;4.65;;;;;;;21.03;69.82;99505.13;4939783;29;20393;-84
2023/08/13 10:53:29;;;;;;;5.32;3.85;;;;;;;21.00;70.48;99494.75;4935952;29;20031;-85
2023/08/13 10:55:59;;;;;;;13.43;4.05;;;;;;;20.77;70.52;99467.88;4935382;29;20065;-85
2023/08/13 10:58:29;;;;;;;7.13;4.35;;;;;;;20.97;71.43;99506.63;4936793;29;20036;-86
2023/08/13 11:01:20;;;;;;;10.55;5.93;;;;;;;20.72;72.02;99517.41;4940270;29;20047;-86
2023/08/13 11:03:52;;;;;;;17.33;6.10;;;;;;;20.52;73.32;99505.63;4926640;28;20626;-85
2023/08/13 11:06:23;;;;;;;17.83;7.65;;;;;;;20.48;73.93;99505.56;4924929;29;20832;-87
2023/08/13 11:08:51;;;;;;;26.30;9.82;;;;;;;20.54;75.56;99512.41;4951483;28;20035;-85
2023/08/13 11:11:22;;;;;;;16.98;7.82;;;;;;;20.41;76.17;99488.78;4954757;28;20059;-85
2023/08/13 11:13:49;;;;;;;27.23;10.80;;;;;;;20.48;76.24;99500.00;4937583;28;20051;-86
2023/08/13 11:16:17;;;;;;;21.30;8.00;;;;;;;20.47;76.51;99503.97;4950811;29;20044;-86
2023/08/13 11:18:44;;;;;;;16.98;6.93;;;;;;;20.62;76.84;99514.09;4931872;29;20921;-86
2023/08/13 11:21:10;;;;;;;17.13;6.63;;;;;;;20.55;77.12;99500.13;4943008;29;20051;-85
2023/08/13 11:23:38;;;;;;;8.38;5.80;;;;;;;20.52;77.31;99509.22;4943536;29;20417;-88
2023/08/13 11:26:05;;;;;;;10.13;5.30;;;;;;;20.47;76.94;99505.94;4908283;29;20067;-87
2023/08/13 11:28:31;;;;;;;6.65;4.78;;;;;;;20.22;77.08;99475.03;4911498;29;20048;-86
2023/08/13 11:30:58;;;;;;;15.38;5.93;;;;;;;20.52;77.44;99522.28;4937730;29;20043;-86